M I D A S
Marine Information and Data Acquisition System
Tripno 487 of the Zeeleeuw from 2003-04-08 07:50:36 to 2003-04-08 14:24:24
Back to CruiseResearch ActivitiesStationsMapUnderway DataData graphs

EquipmentUnitsComment
TimeDGPSUTC
LatitudeDGPSDM.mWGS84
LongitudeDGPSDM.mWGS84
HeadingGyrodeg 
SOGDGPSknotsSpeed over ground
COGDGPSdegCourse over ground
DepthEcho soundermeters200 kHz
Missing or incorrect values are displayed as -999
Navigation data collected by the RV Zeeleeuw from 2003-04-08 07:50:36 to 2003-04-08 14:24:24
                                                                                    Next 1000 lines
Time Latitude Longitude Heading SOG COG Depth
2003-04-08 07:50:44 51°13.599 2°56.104 113.3   173 7.5
2003-04-08 07:50:48 51°13.599 2°56.104 112.5   176 7.5
2003-04-08 07:50:54 51°13.599 2°56.103 111.8   211 7.6
2003-04-08 07:50:58 51°13.598 2°56.102 111.1   349 5.6
2003-04-08 07:51:04 51°13.598 2°56.101 110.4 0.1 26 7.6
2003-04-08 07:51:08 51°13.598 2°56.101 110 0.1 32 7.6
2003-04-08 07:51:14 51°13.599 2°56.101 109.4   28 7.6
2003-04-08 07:51:18 51°13.599 2°56.101 108.8   319 7.6
2003-04-08 07:51:24 51°13.6 2°56.102 108.7   324 7.6
2003-04-08 07:51:28 51°13.6 2°56.101 108.7 0.1 313 7.6
2003-04-08 07:51:34 51°13.6 2°56.098 108.7 0.5 304 7.6
2003-04-08 07:51:39 51°13.601 2°56.096 108.7 0.8 303 7.7
2003-04-08 07:51:44 51°13.601 2°56.092 109 1.2 300 7.9
2003-04-08 07:51:48 51°13.602 2°56.088 109.3 1.6 296 7.4
2003-04-08 07:51:55 51°13.603 2°56.081 109.5 2.1 293 -999
2003-04-08 07:52:00 51°13.604 2°56.076 109.7 2.5 292 -999
2003-04-08 07:52:04 51°13.605 2°56.07 109.8 2.7 291 -999
2003-04-08 07:52:10 51°13.607 2°56.061 109.9 3.1 291 -999
2003-04-08 07:52:15 51°13.608 2°56.053 110.1 3.3 291 -999
2003-04-08 07:52:20 51°13.61 2°56.046 110.1 3.5 291 -999
2003-04-08 07:52:24 51°13.611 2°56.039 110.1 3.7 289 -999
2003-04-08 07:52:30 51°13.615 2°56.03 110.3 4 289 -999
2003-04-08 07:52:35 51°13.617 2°56.021 110.9 4.2 291 -999
2003-04-08 07:52:40 51°13.619 2°56.012 111.6 4.4 290 -999
2003-04-08 07:52:45 51°13.621 2°56.003 112.6 4.5 289 -999
2003-04-08 07:52:50 51°13.623 2°55.993 113.9 4.6 289 -999
2003-04-08 07:52:55 51°13.625 2°55.982 115 4.7 289 -999
2003-04-08 07:53:00 51°13.627 2°55.971 116 4.8 290 -999
2003-04-08 07:53:04 51°13.628 2°55.962 117 4.9 291 5.1
2003-04-08 07:53:10 51°13.631 2°55.949 118 5.1 292 -999
2003-04-08 07:53:15 51°13.634 2°55.937 118.7 5.2 293 -999
2003-04-08 07:53:20 51°13.637 2°55.926 119.2 5.3 294 -999
2003-04-08 07:53:24 51°13.64 2°55.917 119.4 5.3 295 -999
2003-04-08 07:53:30 51°13.643 2°55.904 119.4 5.4 295 -999
2003-04-08 07:53:35 51°13.647 2°55.894 119.2 5.3 295 -999
2003-04-08 07:53:40 51°13.65 2°55.884 118.8 5.3 296 -999
2003-04-08 07:53:44 51°13.653 2°55.876 118.2 5.2 295 -999
2003-04-08 07:53:50 51°13.656 2°55.865 117.3 5.1 295 -999
2003-04-08 07:53:55 51°13.659 2°55.855 116.3 4.9 294 -999
2003-04-08 07:54:00 51°13.662 2°55.845 115.4 4.8 293 -999
2003-04-08 07:54:04 51°13.664 2°55.838 114.4 4.7 293 -999
2003-04-08 07:54:09 51°13.667 2°55.828 113.6 4.5 293 5.2
2003-04-08 07:54:14 51°13.669 2°55.819 112.5 4.4 291 9.1
2003-04-08 07:54:18 51°13.671 2°55.813 111.8 4.4 290 -999
2003-04-08 07:54:24 51°13.673 2°55.803 110.8 4.2 290 -999
2003-04-08 07:54:28 51°13.674 2°55.796 109.8 4.1 290 9.7
2003-04-08 07:54:34 51°13.676 2°55.786 109 3.9 290 10.1
2003-04-08 07:54:39 51°13.677 2°55.778 108.3 3.8 289 10
2003-04-08 07:54:44 51°13.678 2°55.772 107.3 3.4 289 10.5
2003-04-08 07:54:48 51°13.679 2°55.767 105.5 3.1 288 10.6
2003-04-08 07:54:54 51°13.68 2°55.763 103.1 2.5 288 10.6
2003-04-08 07:54:58 51°13.681 2°55.761 100 1.9 289 10.6
2003-04-08 07:55:04 51°13.682 2°55.759 95.4 1.2 299 10.7
2003-04-08 07:55:08 51°13.683 2°55.759 90.1 0.7 313 10.7
2003-04-08 07:55:14 51°13.683 2°55.758 84.8 0.5 341 10.7
2003-04-08 07:55:18 51°13.684 2°55.758 79.7 0.4 10 10.7
2003-04-08 07:55:24 51°13.685 2°55.76 74.4 0.6 32 10.8
2003-04-08 07:55:28 51°13.686 2°55.762 67.7 0.9 41 10.7
2003-04-08 07:55:34 51°13.689 2°55.764 60.5 1.4 38 10.4
2003-04-08 07:55:38 51°13.69 2°55.766 54.1 1.6 35 10.6
2003-04-08 07:55:44 51°13.692 2°55.769 47.9 1.8 32 10.6
2003-04-08 07:55:48 51°13.694 2°55.77 41.4 1.9 29 10.6
2003-04-08 07:55:54 51°13.697 2°55.772 34.9 2 22 10.4
2003-04-08 07:55:59 51°13.7 2°55.773 29.1 2.1 18 10.6
2003-04-08 07:56:04 51°13.703 2°55.774 23.9 2.2 12 10.6
2003-04-08 07:56:08 51°13.705 2°55.774 19.1 2.2 8 10.7
2003-04-08 07:56:14 51°13.709 2°55.775 14.3 2.2 2 10.6
2003-04-08 07:56:19 51°13.712 2°55.776 10.1 2.2 359 -999
2003-04-08 07:56:24 51°13.715 2°55.775 7.2 2.1 356 10.6
2003-04-08 07:56:28 51°13.716 2°55.774 4.2 1.8 354 10.6
2003-04-08 07:56:34 51°13.718 2°55.773 0.7 1.2 348 10.5
2003-04-08 07:56:39 51°13.718 2°55.773 358.3 0.8 341 10.5
2003-04-08 07:56:44 51°13.718 2°55.773 356.4 0.3 312 10.6
2003-04-08 07:56:48 51°13.717 2°55.773 355 0.2 231 10.6
2003-04-08 07:56:54 51°13.716 2°55.773 353.8 0.6 192 10.6
2003-04-08 07:56:59 51°13.714 2°55.773 352.7 1 183 10.7
2003-04-08 07:57:04 51°13.712 2°55.773 351.3 1.3 180 -999
2003-04-08 07:57:10 51°13.709 2°55.773 349.9 1.5 178 -999
2003-04-08 07:57:14 51°13.708 2°55.773 349.2 1.4 178 -999
2003-04-08 07:57:20 51°13.706 2°55.773 348 1.2 179 -999
2003-04-08 07:57:24 51°13.706 2°55.773 346.3 0.9 184 -999
2003-04-08 07:57:28 51°13.706 2°55.773 344.4 0.3 213 5.1
2003-04-08 07:57:34 51°13.706 2°55.772 341.4 0.3 291 5.1
2003-04-08 07:57:38 51°13.707 2°55.77 338.8 0.7 321 5.2
2003-04-08 07:57:44 51°13.71 2°55.768 336 1.5 327 5.1
2003-04-08 07:57:48 51°13.712 2°55.766 333.7 2 328 -999
2003-04-08 07:57:54 51°13.717 2°55.761 331.4 2.6 326 5.5
2003-04-08 07:57:58 51°13.72 2°55.757 329.5 3 325 10.6
2003-04-08 07:58:04 51°13.726 2°55.751 328 3.6 323 10.3
2003-04-08 07:58:08 51°13.731 2°55.746 327.2 4 322 10.1
2003-04-08 07:58:14 51°13.737 2°55.739 326.9 4.4 321 9.6
2003-04-08 07:58:18 51°13.742 2°55.733 327.2 4.8 321 9.5
2003-04-08 07:58:24 51°13.749 2°55.725 327.6 5.2 321 9.4
2003-04-08 07:58:28 51°13.754 2°55.719 328 5.4 322 9.4
2003-04-08 07:58:34 51°13.761 2°55.709 328.4 5.7 322 9.4
2003-04-08 07:58:38 51°13.767 2°55.703 328.6 6 322 9.4
2003-04-08 07:58:44 51°13.775 2°55.693 328.8 6.2 323 9.3
2003-04-08 07:58:48 51°13.78 2°55.686 329.5 6.3 323 9.7
2003-04-08 07:58:54 51°13.789 2°55.676 330.7 6.5 324 9.7
2003-04-08 07:58:58 51°13.796 2°55.67 330.9 6.6 325 9.8
2003-04-08 07:59:04 51°13.805 2°55.66 331 6.8 326 9.7
2003-04-08 07:59:08 51°13.811 2°55.654 331.8 6.9 326 9.8
2003-04-08 07:59:14 51°13.821 2°55.644 333.1 7 327 9.8
2003-04-08 07:59:18 51°13.828 2°55.637 334.5 7.1 329 9.8
2003-04-08 07:59:24 51°13.839 2°55.628 336.2 7.2 330 9.7
2003-04-08 07:59:28 51°13.845 2°55.622 337.8 7.3 332 9.7
2003-04-08 07:59:34 51°13.856 2°55.613 338.7 7.3 333 9.8
2003-04-08 07:59:38 51°13.865 2°55.607 339.1 7.4 334 9.7
2003-04-08 07:59:44 51°13.876 2°55.599 339.2 7.5 335 9.7
2003-04-08 07:59:48 51°13.883 2°55.593 339.5 7.5 335 9.5
2003-04-08 07:59:54 51°13.894 2°55.585 340.2 7.6 335 9.7
2003-04-08 07:59:58 51°13.902 2°55.579 340.4 7.6 336 9.7
2003-04-08 08:00:04 51°13.913 2°55.571 340.6 7.6 336 9.7
2003-04-08 08:00:08 51°13.921 2°55.565 340.6 7.7 336 9.7
2003-04-08 08:00:14 51°13.932 2°55.557 340.3 7.7 336 9.7
2003-04-08 08:00:19 51°13.941 2°55.55 340.3 7.7 335 9.6
2003-04-08 08:00:24 51°13.951 2°55.542 340.4 7.7 335 9.7
2003-04-08 08:00:28 51°13.959 2°55.537 340.3 7.8 335 9.7
2003-04-08 08:00:34 51°13.97 2°55.528 339.9 7.8 335 9.6
2003-04-08 08:00:39 51°13.98 2°55.521 339.8 7.8 335 9.7
2003-04-08 08:00:44 51°13.99 2°55.514 340 7.8 335 9.7
2003-04-08 08:00:48 51°13.998 2°55.508 339.9 7.8 335 9.7
2003-04-08 08:00:54 51°14.011 2°55.499 340 7.8 335 9.6
2003-04-08 08:00:59 51°14.021 2°55.492 340.4 7.8 335 9.6
2003-04-08 08:01:04 51°14.031 2°55.485 341 7.8 336 9.6
2003-04-08 08:01:08 51°14.039 2°55.48 341.1 7.8 336 9.6
2003-04-08 08:01:14 51°14.051 2°55.473 341.1 7.8 336 9.6
2003-04-08 08:01:19 51°14.061 2°55.466 341.1 7.8 336 9.2
2003-04-08 08:01:24 51°14.07 2°55.459 340.9 7.8 336 9
2003-04-08 08:01:28 51°14.078 2°55.453 340.9 7.8 336 9.1
2003-04-08 08:01:34 51°14.09 2°55.445 340.6 7.8 335 9.6
2003-04-08 08:01:38 51°14.097 2°55.439 340.4 7.8 335 9.5
2003-04-08 08:01:44 51°14.109 2°55.431 340.1 7.8 335 9.6
2003-04-08 08:01:48 51°14.117 2°55.424 339.6 7.8 334 9.6
2003-04-08 08:01:54 51°14.128 2°55.415 339 7.8 334 9.6
2003-04-08 08:01:58 51°14.136 2°55.409 338.7 7.8 333 9.6
2003-04-08 08:02:04 51°14.146 2°55.398 338.3 7.8 333 9.6
2003-04-08 08:02:08 51°14.154 2°55.391 337.5 7.8 333 9.1
2003-04-08 08:02:14 51°14.165 2°55.381 336.6 7.9 332 9.7
2003-04-08 08:02:18 51°14.173 2°55.373 335.3 7.9 331 9.7
2003-04-08 08:02:24 51°14.184 2°55.362 333.9 7.9 329 9.7
2003-04-08 08:02:28 51°14.192 2°55.355 332.4 7.9 328 9.7
2003-04-08 08:02:34 51°14.203 2°55.344 330.2 7.9 327 9.7
2003-04-08 08:02:39 51°14.212 2°55.333 328.8 7.9 325 9.7
2003-04-08 08:02:44 51°14.221 2°55.323 327.2 7.9 323 9.7
2003-04-08 08:02:48 51°14.227 2°55.314 326.3 7.9 322 9.7
2003-04-08 08:02:52 51°14.235 2°55.305 324.5 7.9 321 9.7
2003-04-08 08:02:58 51°14.244 2°55.291 322.7 7.9 320 9.8
2003-04-08 08:03:04 51°14.254 2°55.276 320.7 7.9 317 9.7
2003-04-08 08:03:08 51°14.26 2°55.267 318.7 7.9 316 9.8
2003-04-08 08:03:14 51°14.269 2°55.251 317.4 7.9 313 9.7
2003-04-08 08:03:19 51°14.276 2°55.238 316.5 7.9 312 9.8
2003-04-08 08:03:23 51°14.281 2°55.227 314.9 7.9 311 9.8
2003-04-08 08:03:28 51°14.288 2°55.213 313.4 7.9 310 9.8
2003-04-08 08:03:34 51°14.296 2°55.196 312.8 7.9 309 9.9
2003-04-08 08:03:38 51°14.301 2°55.185 312.5 8 308 9.9
2003-04-08 08:03:44 51°14.31 2°55.169 312 8 308 9.9
2003-04-08 08:03:48 51°14.315 2°55.158 311.5 8 307 9.8
2003-04-08 08:03:54 51°14.323 2°55.141 311 8 306 9.9
2003-04-08 08:03:59 51°14.329 2°55.127 310.9 8 306 9.9
2003-04-08 08:04:04 51°14.336 2°55.112 310.9 8 306 9.5
2003-04-08 08:04:08 51°14.34 2°55.101 310.6 7.9 305 9.7
2003-04-08 08:04:14 51°14.348 2°55.084 310.2 7.9 305 10
2003-04-08 08:04:18 51°14.353 2°55.072 309.6 7.9 305 10.3
2003-04-08 08:04:24 51°14.36 2°55.055 308.7 7.9 304 10.2
2003-04-08 08:04:28 51°14.365 2°55.043 308.2 8 303 10
2003-04-08 08:04:34 51°14.372 2°55.025 307.2 8 302 10
2003-04-08 08:04:38 51°14.377 2°55.013 306.2 8 301 10
2003-04-08 08:04:44 51°14.383 2°54.994 303.9 8 299 10.1
2003-04-08 08:04:48 51°14.386 2°54.981 300.6 8 297 10.3
2003-04-08 08:04:54 51°14.391 2°54.961 296.6 7.9 293 10.2
2003-04-08 08:04:58 51°14.393 2°54.947 292.7 7.9 289 10.2
2003-04-08 08:05:04 51°14.395 2°54.927 289.1 7.9 285 10.3
2003-04-08 08:05:08 51°14.396 2°54.913 286.3 7.9 281 10.2
2003-04-08 08:05:12 51°14.397 2°54.898 283.4 8 278 10.1
2003-04-08 08:05:18 51°14.399 2°54.877 281.3 8 276 10.2
2003-04-08 08:05:24 51°14.399 2°54.855 279.3 8.1 273 10.2
2003-04-08 08:05:28 51°14.399 2°54.841 278 8.1 272 10.3
2003-04-08 08:05:34 51°14.399 2°54.819 277.5 8.2 271 10.1
2003-04-08 08:05:38 51°14.4 2°54.804 277.7 8.2 271 10.2
2003-04-08 08:05:44 51°14.4 2°54.783 278.2 8.3 271 10.2
2003-04-08 08:05:48 51°14.4 2°54.768 278.5 8.3 271 10.2
2003-04-08 08:05:54 51°14.4 2°54.746 278.6 8.3 271 10.1
2003-04-08 08:05:58 51°14.4 2°54.731 278.1 8.4 271 10.2
2003-04-08 08:06:04 51°14.4 2°54.709 276.8 8.4 270 10.1
2003-04-08 08:06:08 51°14.399 2°54.694 275 8.4 269 10.2
2003-04-08 08:06:14 51°14.398 2°54.672 273.2 8.2 267 10.2
2003-04-08 08:06:18 51°14.397 2°54.658 271.8 8 266 10.2
2003-04-08 08:06:24 51°14.396 2°54.639 270.5 7.6 265 10.2
2003-04-08 08:06:28 51°14.395 2°54.626 268.9 7.4 263 10.2
2003-04-08 08:06:34 51°14.393 2°54.608 267.3 7.1 262 10.2
2003-04-08 08:06:38 51°14.392 2°54.597 266 6.9 261 10.2
2003-04-08 08:06:44 51°14.39 2°54.58 264.7 6.6 259 10.1
2003-04-08 08:06:48 51°14.389 2°54.569 264.1 6.5 259 10.2
2003-04-08 08:06:54 51°14.386 2°54.553 263.3 6.2 257 10.1
2003-04-08 08:06:58 51°14.385 2°54.543 262.7 6.1 257 10
2003-04-08 08:07:04 51°14.383 2°54.529 262 5.9 256 9.8
2003-04-08 08:07:08 51°14.382 2°54.519 261.9 5.8 256 9.7
2003-04-08 08:07:14 51°14.379 2°54.505 261.5 5.6 255 9.5
2003-04-08 08:07:18 51°14.378 2°54.495 261.1 5.5 255 9.5
2003-04-08 08:07:24 51°14.375 2°54.482 260.8 5.4 255 9.4
2003-04-08 08:07:28 51°14.373 2°54.473 260.7 5.3 254 9.4
2003-04-08 08:07:34 51°14.371 2°54.46 260.6 5.2 254 9.5
2003-04-08 08:07:38 51°14.37 2°54.452 260.6 5.1 254 9.5
2003-04-08 08:07:44 51°14.367 2°54.439 260.5 5 254 9.4
2003-04-08 08:07:48 51°14.365 2°54.431 260.5 4.9 253 9.4
2003-04-08 08:07:54 51°14.363 2°54.418 260.9 4.8 254 9.3
2003-04-08 08:07:58 51°14.362 2°54.411 261.2 4.8 253 9.3
2003-04-08 08:08:04 51°14.36 2°54.399 261.4 4.6 254 9.3
2003-04-08 08:08:08 51°14.358 2°54.391 261.7 4.6 254 9.3
2003-04-08 08:08:14 51°14.355 2°54.38 262.4 4.5 254 9.4
2003-04-08 08:08:18 51°14.354 2°54.372 262.8 4.4 254 9.2
2003-04-08 08:08:24 51°14.352 2°54.362 262.7 4.4 254 9.3
2003-04-08 08:08:28 51°14.351 2°54.354 262.5 4.3 253 9.2
2003-04-08 08:08:34 51°14.349 2°54.344 261.9 4.3 253 9.3
2003-04-08 08:08:38 51°14.348 2°54.337 261.2 4.2 253 9.2
2003-04-08 08:08:44 51°14.346 2°54.327 260.3 4.1 253 9.2
2003-04-08 08:08:48 51°14.344 2°54.32 259.5 4.1 252 9.2
2003-04-08 08:08:54 51°14.341 2°54.309 258.6 4.1 251 9.4
2003-04-08 08:08:58 51°14.34 2°54.302 257.3 4 250 9.2
2003-04-08 08:09:04 51°14.338 2°54.293 256.2 4 248 9.1
2003-04-08 08:09:08 51°14.336 2°54.286 254.8 3.9 248 9.1
2003-04-08 08:09:14 51°14.333 2°54.277 253.9 3.9 248 9.2
2003-04-08 08:09:18 51°14.332 2°54.271 252.5 3.8 248 9.1
2003-04-08 08:09:24 51°14.329 2°54.262 251.4 3.8 247 9.1
2003-04-08 08:09:28 51°14.328 2°54.256 250.3 3.7 247 9.1
2003-04-08 08:09:34 51°14.325 2°54.247 249 3.7 245 9.1
2003-04-08 08:09:39 51°14.322 2°54.24 247.8 3.7 244 9.1
2003-04-08 08:09:44 51°14.321 2°54.233 246.7 3.7 243 9.2
2003-04-08 08:09:48 51°14.319 2°54.227 245.9 3.6 242 9.1
2003-04-08 08:09:54 51°14.316 2°54.219 244.9 3.6 241 9.1
2003-04-08 08:09:59 51°14.313 2°54.211 244.5 3.6 240 9.1
2003-04-08 08:10:04 51°14.311 2°54.204 244 3.6 239 9
2003-04-08 08:10:08 51°14.309 2°54.199 243.8 3.6 240 9.1
2003-04-08 08:10:14 51°14.306 2°54.191 243.7 3.5 240 9.1
2003-04-08 08:10:19 51°14.304 2°54.184 243.8 3.5 240 9
2003-04-08 08:10:24 51°14.301 2°54.178 244 3.5 240 9.1
2003-04-08 08:10:28 51°14.299 2°54.172 244.4 3.5 241 9.1
2003-04-08 08:10:34 51°14.296 2°54.164 245 3.4 241 9.1
2003-04-08 08:10:38 51°14.294 2°54.159 245.7 3.4 240 9
2003-04-08 08:10:44 51°14.292 2°54.151 246.3 3.4 241 9
2003-04-08 08:10:48 51°14.29 2°54.145 247.1 3.4 242 8.9
2003-04-08 08:10:54 51°14.287 2°54.137 247.6 3.4 242 9.1
2003-04-08 08:10:58 51°14.285 2°54.131 248.3 3.5 242 9
2003-04-08 08:11:04 51°14.282 2°54.121 248.9 3.9 243 9
2003-04-08 08:11:08 51°14.279 2°54.113 248.9 4.4 243 9
2003-04-08 08:11:14 51°14.274 2°54.1 248.6 5.3 244 9.1
2003-04-08 08:11:19 51°14.27 2°54.087 248.4 5.9 244 9
2003-04-08 08:11:24 51°14.266 2°54.072 248.6 6.6 245 8.9
2003-04-08 08:11:28 51°14.262 2°54.06 249 7.1 244 8.8
2003-04-08 08:11:34 51°14.257 2°54.041 249 7.8 244 8.9
2003-04-08 08:11:38 51°14.253 2°54.026 249.2 8.5 245 8.9
2003-04-08 08:11:44 51°14.245 2°54.003 248.9 9.2 244 8.8
2003-04-08 08:11:48 51°14.24 2°53.986 249 9.7 245 8.9
2003-04-08 08:11:54 51°14.232 2°53.959 248.7 10.4 244 8.8
2003-04-08 08:11:59 51°14.224 2°53.936 248.8 10.9 244 8.8
2003-04-08 08:12:04 51°14.218 2°53.912 248.9 11.4 245 8.8
2003-04-08 08:12:08 51°14.212 2°53.893 248.9 11.6 245 8.8
2003-04-08 08:12:14 51°14.204 2°53.864 248.7 12 245 8.7
2003-04-08 08:12:18 51°14.198 2°53.844 248.8 12.2 244 8.7
2003-04-08 08:12:24 51°14.189 2°53.815 249.3 12.4 245 8.7
2003-04-08 08:12:28 51°14.183 2°53.795 248.7 12.5 245 8.8
2003-04-08 08:12:34 51°14.174 2°53.764 248.7 12.7 245 8.8
2003-04-08 08:12:39 51°14.166 2°53.739 249 12.9 245 8.8
2003-04-08 08:12:44 51°14.159 2°53.713 249.3 13 246 8.8
2003-04-08 08:12:48 51°14.152 2°53.692 249 13.1 245 8.8
2003-04-08 08:12:54 51°14.144 2°53.66 249.4 13.2 246 8.8
2003-04-08 08:12:58 51°14.137 2°53.639 249.6 13.3 245 8.9
2003-04-08 08:13:04 51°14.128 2°53.607 248.9 13.4 245 8.8
2003-04-08 08:13:08 51°14.121 2°53.585 249 13.4 244 8.9
2003-04-08 08:13:14 51°14.111 2°53.553 248 13.4 245 8.9
2003-04-08 08:13:18 51°14.105 2°53.532 248.8 13.5 244 8.8
2003-04-08 08:13:24 51°14.096 2°53.499 249 13.5 245 8.9
2003-04-08 08:13:28 51°14.089 2°53.477 248.3 13.6 244 8.9
2003-04-08 08:13:34 51°14.08 2°53.444 248.9 13.6 244 8.9
2003-04-08 08:13:39 51°14.072 2°53.417 248.6 13.6 245 9
2003-04-08 08:13:44 51°14.064 2°53.39 249.9 13.7 245 9.1
2003-04-08 08:13:48 51°14.058 2°53.368 248.9 13.6 245 9
2003-04-08 08:13:54 51°14.048 2°53.336 249 13.7 245 9.2
2003-04-08 08:13:58 51°14.042 2°53.314 248.9 13.7 245 9.1
2003-04-08 08:14:03 51°14.034 2°53.286 248.9 13.7 245 9.2
2003-04-08 08:14:09 51°14.025 2°53.253 249.1 13.7 245 9.2
2003-04-08 08:14:14 51°14.016 2°53.226 249.2 13.7 245 9.3
2003-04-08 08:14:18 51°14.01 2°53.204 249.7 13.7 245 9.3
2003-04-08 08:14:24 51°14 2°53.171 249.3 13.7 245 9.4
2003-04-08 08:14:28 51°13.993 2°53.148 249.5 13.7 245 9.5
2003-04-08 08:14:34 51°13.983 2°53.116 248.9 13.7 245 9.5
2003-04-08 08:14:39 51°13.974 2°53.09 247.4 13.7 244 9.5
2003-04-08 08:14:44 51°13.965 2°53.063 246.9 13.7 243 9.5
2003-04-08 08:14:48 51°13.957 2°53.041 245.5 13.7 243 9.6
2003-04-08 08:14:54 51°13.948 2°53.007 246.3 13.8 242 9.6
2003-04-08 08:14:59 51°13.938 2°52.981 245.2 13.8 242 9.7
2003-04-08 08:15:03 51°13.931 2°52.96 244.3 13.8 241 9.6
2003-04-08 08:15:08 51°13.921 2°52.934 244.1 13.7 240 9.7
2003-04-08 08:15:14 51°13.91 2°52.903 244.7 13.7 241 9.7
2003-04-08 08:15:19 51°13.901 2°52.878 244.5 13.7 241 9.7
2003-04-08 08:15:24 51°13.892 2°52.851 244.9 13.7 241 9.8
2003-04-08 08:15:28 51°13.884 2°52.83 245 13.7 241 9.8
2003-04-08 08:15:34 51°13.873 2°52.797 245.3 13.6 241 9.9
2003-04-08 08:15:38 51°13.866 2°52.776 245.3 13.6 241 9.9
2003-04-08 08:15:44 51°13.856 2°52.744 246 13.7 241 9.8
2003-04-08 08:15:48 51°13.848 2°52.724 244 13.6 241 9.9
2003-04-08 08:15:54 51°13.838 2°52.692 245.3 13.6 241 9.9
2003-04-08 08:15:59 51°13.829 2°52.666 245.2 13.6 241 9.9
2003-04-08 08:16:04 51°13.82 2°52.64 244.3 13.6 241 9.9
2003-04-08 08:16:08 51°13.812 2°52.619 245.3 13.6 241 9.9
2003-04-08 08:16:14 51°13.8 2°52.588 244.9 13.6 241 9.9
2003-04-08 08:16:18 51°13.794 2°52.566 245.4 13.6 241 9.9
2003-04-08 08:16:24 51°13.783 2°52.535 244.3 13.5 240 9.9
2003-04-08 08:16:28 51°13.776 2°52.513 245.3 13.6 241 9.8
2003-04-08 08:16:34 51°13.764 2°52.482 244.7 13.5 241 9.9
2003-04-08 08:16:39 51°13.756 2°52.456 245 13.6 241 9.9
2003-04-08 08:16:44 51°13.746 2°52.43 245.2 13.6 241 10
2003-04-08 08:16:48 51°13.739 2°52.41 244.6 13.6 241 10
2003-04-08 08:16:54 51°13.728 2°52.379 244.5 13.6 241 10.1
2003-04-08 08:16:58 51°13.721 2°52.358 245 13.6 241 10.1
2003-04-08 08:17:04 51°13.71 2°52.326 245.3 13.6 242 10
2003-04-08 08:17:08 51°13.703 2°52.305 245.2 13.6 242 10.1
2003-04-08 08:17:14 51°13.692 2°52.272 245.5 13.6 242 10.1
2003-04-08 08:17:19 51°13.682 2°52.245 244.5 13.6 241 10.1
2003-04-08 08:17:24 51°13.673 2°52.217 245.5 13.6 241 10
2003-04-08 08:17:28 51°13.665 2°52.196 245 13.6 242 10
2003-04-08 08:17:34 51°13.655 2°52.165 245.3 13.6 242 10.1
2003-04-08 08:17:39 51°13.646 2°52.139 245 13.6 242 10.1
2003-04-08 08:17:44 51°13.637 2°52.113 244.7 13.6 241 10.1
2003-04-08 08:17:48 51°13.63 2°52.093 244.5 13.6 241 10.1
2003-04-08 08:17:54 51°13.619 2°52.062 244.9 13.6 241 10.1
2003-04-08 08:17:59 51°13.609 2°52.035 245.4 13.6 241 10.1
2003-04-08 08:18:04 51°13.6 2°52.008 245.2 13.6 242 10.1
2003-04-08 08:18:08 51°13.593 2°51.986 245.3 13.6 241 10.1
2003-04-08 08:18:14 51°13.582 2°51.954 245.1 13.7 242 10.2
2003-04-08 08:18:19 51°13.572 2°51.928 244.4 13.7 241 10.1
2003-04-08 08:18:24 51°13.564 2°51.902 245 13.7 241 10.1
2003-04-08 08:18:28 51°13.557 2°51.881 245.2 13.7 242 10.1
2003-04-08 08:18:34 51°13.545 2°51.85 244.3 13.6 241 10.2
2003-04-08 08:18:38 51°13.539 2°51.829 245.3 13.6 241 10.1
2003-04-08 08:18:44 51°13.527 2°51.797 244.4 13.7 241 10.1
2003-04-08 08:18:48 51°13.52 2°51.775 245.4 13.7 241 10.1
2003-04-08 08:18:54 51°13.509 2°51.744 244.5 13.7 241 10.2
2003-04-08 08:18:58 51°13.502 2°51.722 245 13.7 242 10.2
2003-04-08 08:19:04 51°13.491 2°51.691 245.1 13.7 241 10.2
2003-04-08 08:19:08 51°13.484 2°51.67 245 13.7 241 10.2
2003-04-08 08:19:14 51°13.473 2°51.638 245.4 13.7 242 10.3
2003-04-08 08:19:18 51°13.466 2°51.616 245.5 13.7 242 10.3
2003-04-08 08:19:24 51°13.455 2°51.585 245 13.8 241 10.3
2003-04-08 08:19:28 51°13.448 2°51.564 244.8 13.7 242 10.3
2003-04-08 08:19:34 51°13.437 2°51.531 244.7 13.7 241 10.4
2003-04-08 08:19:39 51°13.429 2°51.504 245.3 13.8 242 10.4
2003-04-08 08:19:44 51°13.419 2°51.478 244.2 13.7 241 10.3
2003-04-08 08:19:48 51°13.411 2°51.457 245.1 13.7 241 10.3
2003-04-08 08:19:54 51°13.401 2°51.425 244.6 13.8 242 10.4
2003-04-08 08:19:59 51°13.391 2°51.398 244.6 13.8 241 10.4
2003-04-08 08:20:04 51°13.382 2°51.371 245 13.9 242 10.3
2003-04-08 08:20:08 51°13.374 2°51.349 245.1 14 241 10.4
2003-04-08 08:20:12 51°13.367 2°51.327 244.5 14.2 241 10.4
2003-04-08 08:20:18 51°13.356 2°51.294 245.8 14.3 242 10.4
2003-04-08 08:20:24 51°13.345 2°51.26 244.5 14.3 242 10.3
2003-04-08 08:20:28 51°13.337 2°51.238 244.5 14.3 241 10.4
2003-04-08 08:20:34 51°13.326 2°51.204 245.3 14.4 242 10.3
2003-04-08 08:20:39 51°13.316 2°51.177 244.9 14.5 241 10.4
2003-04-08 08:20:44 51°13.306 2°51.149 244.6 14.5 242 10.4
2003-04-08 08:20:48 51°13.298 2°51.126 245.1 14.6 241 10.4
2003-04-08 08:20:54 51°13.286 2°51.092 244.5 14.6 242 10.5
2003-04-08 08:20:58 51°13.278 2°51.069 244.4 14.6 241 10.5
2003-04-08 08:21:04 51°13.266 2°51.034 245.1 14.6 241 10.4
2003-04-08 08:21:08 51°13.259 2°51.011 245.1 14.7 242 10.5
2003-04-08 08:21:14 51°13.247 2°50.977 244 14.6 241 10.4
2003-04-08 08:21:18 51°13.239 2°50.954 245.2 14.7 241 10.4
2003-04-08 08:21:24 51°13.228 2°50.919 245.9 14.8 242 10.5
2003-04-08 08:21:28 51°13.22 2°50.897 243.9 14.7 241 10.5
2003-04-08 08:21:34 51°13.208 2°50.862 245.2 14.7 241 10.5
2003-04-08 08:21:38 51°13.2 2°50.84 245.2 14.7 242 10.5
2003-04-08 08:21:44 51°13.188 2°50.806 244.5 14.7 241 10.5
2003-04-08 08:21:48 51°13.18 2°50.783 245.5 14.8 241 10.6
2003-04-08 08:21:54 51°13.169 2°50.749 245.2 14.8 242 10.6
2003-04-08 08:21:58 51°13.161 2°50.727 244.5 14.7 241 10.6
2003-04-08 08:22:04 51°13.149 2°50.693 245.3 14.7 242 10.5
2003-04-08 08:22:08 51°13.141 2°50.67 244.7 14.7 241 10.6
2003-04-08 08:22:14 51°13.13 2°50.634 245.6 14.8 242 10.7
2003-04-08 08:22:18 51°13.122 2°50.611 244.9 14.8 241 10.7
2003-04-08 08:22:24 51°13.11 2°50.576 245.4 14.8 242 10.6
2003-04-08 08:22:28 51°13.102 2°50.554 245.1 14.8 242 10.6
2003-04-08 08:22:34 51°13.091 2°50.519 245.4 14.8 242 10.6
2003-04-08 08:22:39 51°13.081 2°50.49 244.8 14.8 241 10.6
2003-04-08 08:22:44 51°13.072 2°50.461 245.4 14.9 242 10.7
2003-04-08 08:22:48 51°13.064 2°50.439 244.8 14.8 242 10.7
2003-04-08 08:22:54 51°13.052 2°50.404 245.8 14.8 242 10.7
2003-04-08 08:22:59 51°13.043 2°50.376 245.4 14.8 243 10.7
2003-04-08 08:23:04 51°13.034 2°50.346 245.7 14.8 242 10.7
2003-04-08 08:23:08 51°13.026 2°50.323 245.3 14.8 243 10.7
2003-04-08 08:23:14 51°13.015 2°50.287 246.5 14.8 243 10.7
2003-04-08 08:23:19 51°13.005 2°50.259 245 14.7 243 10.8
2003-04-08 08:23:24 51°12.996 2°50.229 245.5 14.9 242 10.8
2003-04-08 08:23:28 51°12.987 2°50.207 245.2 14.9 242 10.8
2003-04-08 08:23:34 51°12.976 2°50.171 245.6 15 242 10.8
2003-04-08 08:23:39 51°12.966 2°50.143 245.1 14.9 242 10.9
2003-04-08 08:23:44 51°12.957 2°50.114 245.2 14.8 242 10.9
2003-04-08 08:23:48 51°12.949 2°50.092 245.2 14.8 242 10.9
2003-04-08 08:23:54 51°12.937 2°50.057 246 14.8 242 10.9
2003-04-08 08:23:58 51°12.929 2°50.034 244.6 14.7 242 10.8
2003-04-08 08:24:04 51°12.917 2°49.998 244.7 14.8 241 10.8
2003-04-08 08:24:09 51°12.907 2°49.969 245.8 14.9 242 10.9
2003-04-08 08:24:14 51°12.898 2°49.94 244.7 14.8 242 10.9
2003-04-08 08:24:18 51°12.89 2°49.917 245.7 14.8 242 10.9
2003-04-08 08:24:24 51°12.878 2°49.883 244.7 14.9 241 11
2003-04-08 08:24:28 51°12.871 2°49.86 245.5 14.9 241 11
2003-04-08 08:24:34 51°12.86 2°49.825 245.3 14.9 242 11
2003-04-08 08:24:38 51°12.852 2°49.802 245.5 14.9 242 11
2003-04-08 08:24:44 51°12.841 2°49.767 245.1 14.8 242 11
2003-04-08 08:24:48 51°12.833 2°49.744 244.9 14.8 242 10.9
2003-04-08 08:24:54 51°12.821 2°49.71 246 14.9 242 11
2003-04-08 08:24:59 51°12.811 2°49.682 244.3 14.9 242 11
2003-04-08 08:25:04 51°12.801 2°49.653 244.3 14.8 240 11
2003-04-08 08:25:08 51°12.793 2°49.63 244.5 14.8 241 11
2003-04-08 08:25:14 51°12.782 2°49.595 245.9 14.9 241 11
2003-04-08 08:25:19 51°12.772 2°49.566 245.6 14.9 243 11.1
2003-04-08 08:25:24 51°12.762 2°49.537 244.7 14.8 241 11.1
2003-04-08 08:25:28 51°12.754 2°49.514 245.5 14.8 242 11.1
2003-04-08 08:25:34 51°12.742 2°49.48 244.4 14.8 241 11.1
2003-04-08 08:25:38 51°12.735 2°49.457 244.9 14.9 241 11.1
2003-04-08 08:25:44 51°12.723 2°49.422 244.8 14.9 241 11.1
2003-04-08 08:25:48 51°12.715 2°49.399 244.5 14.9 242 11.1
2003-04-08 08:25:54 51°12.703 2°49.364 245.1 14.9 241 11.1
2003-04-08 08:25:59 51°12.694 2°49.335 245.5 15 242 11.2
2003-04-08 08:26:04 51°12.684 2°49.305 245.3 14.9 242 11.2
2003-04-08 08:26:08 51°12.676 2°49.282 245.1 14.8 242 11.2
2003-04-08 08:26:14 51°12.665 2°49.247 245.9 14.9 243 11.2
2003-04-08 08:26:19 51°12.655 2°49.218 245.7 14.9 242 11.2
2003-04-08 08:26:24 51°12.646 2°49.188 245.9 14.9 242 11.2
2003-04-08 08:26:28 51°12.638 2°49.165 245.9 14.9 242 11.2
2003-04-08 08:26:34 51°12.626 2°49.131 244.8 14.8 242 11.3
2003-04-08 08:26:38 51°12.619 2°49.108 245.3 14.9 242 11.3
2003-04-08 08:26:44 51°12.607 2°49.072 245.8 15 242 11.3
2003-04-08 08:26:48 51°12.6 2°49.047 245.3 14.9 242 11.3
2003-04-08 08:26:54 51°12.589 2°49.011 245.9 14.9 243 11.3
2003-04-08 08:26:59 51°12.58 2°48.983 246.1 14.9 243 11.3
2003-04-08 08:27:04 51°12.57 2°48.955 245.2 14.9 242 11.3
2003-04-08 08:27:08 51°12.562 2°48.932 246 14.9 242 11.3
2003-04-08 08:27:14 51°12.55 2°48.897 246 14.9 242 11.3
2003-04-08 08:27:18 51°12.544 2°48.873 246.2 14.8 243 11.4
2003-04-08 08:27:24 51°12.531 2°48.839 245.5 14.8 243 11.3
2003-04-08 08:27:28 51°12.523 2°48.816 245.7 14.9 242 11.4
2003-04-08 08:27:34 51°12.512 2°48.781 246.4 15 243 11.4
2003-04-08 08:27:39 51°12.501 2°48.753 244.9 14.9 242 11.4
2003-04-08 08:27:44 51°12.493 2°48.724 245.9 14.9 242 11.4
2003-04-08 08:27:48 51°12.484 2°48.702 244.8 14.9 242 11.4
2003-04-08 08:27:52 51°12.477 2°48.679 245.2 14.9 242 11.4
2003-04-08 08:27:58 51°12.466 2°48.644 245.3 14.9 243 11.4
2003-04-08 08:28:04 51°12.454 2°48.609 245.8 15 242 11.5
2003-04-08 08:28:08 51°12.446 2°48.585 244.5 14.9 243 11.4
2003-04-08 08:28:14 51°12.434 2°48.551 245.3 14.8 241 11.4
2003-04-08 08:28:19 51°12.424 2°48.523 245.1 14.9 243 11.4
2003-04-08 08:28:24 51°12.414 2°48.494 243.7 14.8 241 11.5
2003-04-08 08:28:28 51°12.407 2°48.47 245.5 14.9 242 11.4
2003-04-08 08:28:34 51°12.394 2°48.435 244.8 15 241 11.5
2003-04-08 08:28:38 51°12.387 2°48.411 245.4 14.9 242 11.5
2003-04-08 08:28:44 51°12.375 2°48.376 244.4 14.9 242 11.6
2003-04-08 08:28:48 51°12.368 2°48.353 246.1 14.9 241 11.5
2003-04-08 08:28:54 51°12.356 2°48.318 245.5 15 243 11.5
2003-04-08 08:28:58 51°12.348 2°48.296 245.4 14.9 241 11.5
2003-04-08 08:29:04 51°12.337 2°48.262 245.1 14.8 242 11.6
2003-04-08 08:29:08 51°12.329 2°48.239 244.3 14.8 241 11.6
2003-04-08 08:29:14 51°12.317 2°48.203 245.2 15 241 11.6
2003-04-08 08:29:18 51°12.31 2°48.18 245.2 14.9 243 11.6
2003-04-08 08:29:24 51°12.298 2°48.146 244.7 14.8 241 11.7
2003-04-08 08:29:29 51°12.288 2°48.117 245.2 14.8 242 11.6
2003-04-08 08:29:34 51°12.279 2°48.089 245.2 14.8 242 11.8
2003-04-08 08:29:38 51°12.271 2°48.065 245.1 14.9 242 11.7
2003-04-08 08:29:44 51°12.26 2°48.029 245.6 14.9 242 11.7
2003-04-08 08:29:48 51°12.252 2°48.006 245.7 14.9 242 11.7
2003-04-08 08:29:54 51°12.241 2°47.971 246.1 14.8 243 11.7
2003-04-08 08:29:59 51°12.231 2°47.943 245 14.8 243 11.7
2003-04-08 08:30:04 51°12.222 2°47.913 246.2 14.9 242 11.7
2003-04-08 08:30:08 51°12.215 2°47.89 245 14.9 243 11.7
2003-04-08 08:30:14 51°12.203 2°47.856 244.3 14.8 241 11.6
2003-04-08 08:30:18 51°12.195 2°47.833 245.3 14.9 241 11.7
2003-04-08 08:30:24 51°12.183 2°47.799 245.2 14.9 242 11.6
2003-04-08 08:30:28 51°12.175 2°47.777 244.5 14.8 242 11.7
2003-04-08 08:30:34 51°12.164 2°47.741 245 14.8 242 11.7
2003-04-08 08:30:38 51°12.156 2°47.718 245.2 14.8 242 11.7
2003-04-08 08:30:44 51°12.144 2°47.684 245.4 14.9 242 11.8
2003-04-08 08:30:48 51°12.137 2°47.66 245.4 14.9 242 11.8
2003-04-08 08:30:54 51°12.125 2°47.626 245.3 14.9 242 11.8
2003-04-08 08:30:59 51°12.115 2°47.597 245.4 14.9 242 11.8
2003-04-08 08:31:04 51°12.105 2°47.567 245.3 14.9 242 11.7
2003-04-08 08:31:08 51°12.098 2°47.544 246.5 14.9 242 11.7
2003-04-08 08:31:14 51°12.087 2°47.509 245.4 14.9 243 11.7
2003-04-08 08:31:19 51°12.077 2°47.48 244.9 14.8 242 11.7
2003-04-08 08:31:24 51°12.068 2°47.451 246.2 14.9 243 11.8
2003-04-08 08:31:28 51°12.059 2°47.428 244.1 14.9 242 11.8
2003-04-08 08:31:34 51°12.048 2°47.393 245 14.8 241 11.8
2003-04-08 08:31:39 51°12.038 2°47.364 244.9 14.9 242 11.9
2003-04-08 08:31:44 51°12.028 2°47.334 244.5 15 241 11.8
2003-04-08 08:31:48 51°12.021 2°47.311 245.3 15 242 11.8
2003-04-08 08:31:54 51°12.009 2°47.277 244.1 14.9 241 11.8
2003-04-08 08:31:58 51°12.001 2°47.253 245.8 15 242 11.8
2003-04-08 08:32:04 51°11.989 2°47.218 245.8 15 242 11.8
2003-04-08 08:32:08 51°11.982 2°47.195 245.6 14.9 243 11.7
2003-04-08 08:32:14 51°11.97 2°47.16 245.5 15 242 11.7
2003-04-08 08:32:18 51°11.963 2°47.136 246.5 15 243 11.6
2003-04-08 08:32:24 51°11.951 2°47.102 245.3 15 242 11.7
2003-04-08 08:32:28 51°11.943 2°47.078 245 14.9 242 11.7
2003-04-08 08:32:34 51°11.931 2°47.044 244.9 14.9 242 11.6
2003-04-08 08:32:39 51°11.921 2°47.015 245 14.9 242 11.7
2003-04-08 08:32:44 51°11.911 2°46.986 245 15 242 11.7
2003-04-08 08:32:48 51°11.904 2°46.962 245.4 15 242 11.8
2003-04-08 08:32:54 51°11.892 2°46.928 245.4 15 242 11.7
2003-04-08 08:32:58 51°11.885 2°46.904 245.9 14.9 243 11.6
2003-04-08 08:33:04 51°11.873 2°46.869 245.3 14.9 242 11.6
2003-04-08 08:33:08 51°11.866 2°46.846 245.2 14.9 242 11.6
2003-04-08 08:33:14 51°11.854 2°46.811 245.5 15 242 11.7
2003-04-08 08:33:19 51°11.845 2°46.782 245.4 15 242 11.7
2003-04-08 08:33:24 51°11.836 2°46.752 245.4 14.9 243 11.6
2003-04-08 08:33:28 51°11.828 2°46.729 244.4 14.9 242 11.7
2003-04-08 08:33:34 51°11.817 2°46.693 246 15 243 11.7
2003-04-08 08:33:38 51°11.809 2°46.671 244.5 14.9 242 11.7
2003-04-08 08:33:44 51°11.798 2°46.635 245.4 14.9 242 11.7
2003-04-08 08:33:48 51°11.79 2°46.612 245.8 15 242 11.7
2003-04-08 08:33:54 51°11.779 2°46.577 245.8 15 243 11.7
2003-04-08 08:33:59 51°11.769 2°46.548 245.1 14.9 242 11.7
2003-04-08 08:34:04 51°11.76 2°46.518 245.3 14.9 243 11.7
2003-04-08 08:34:08 51°11.752 2°46.495 245.8 14.9 242 11.7
2003-04-08 08:34:14 51°11.741 2°46.46 246 15 243 11.8
2003-04-08 08:34:18 51°11.733 2°46.437 245.2 14.9 242 11.7
2003-04-08 08:34:24 51°11.722 2°46.401 245.6 14.9 243 11.7
2003-04-08 08:34:28 51°11.714 2°46.378 246.3 15 242 11.7
2003-04-08 08:34:34 51°11.703 2°46.343 246.1 15 243 11.7
2003-04-08 08:34:39 51°11.695 2°46.313 246.6 14.9 243 11.7
2003-04-08 08:34:44 51°11.686 2°46.283 247.4 14.8 244 11.6
2003-04-08 08:34:48 51°11.679 2°46.259 248.9 15 245 11.6
2003-04-08 08:34:54 51°11.668 2°46.223 249.1 15 246 11.7
2003-04-08 08:34:58 51°11.661 2°46.199 248.7 15 246 11.6
2003-04-08 08:35:04 51°11.652 2°46.163 249.1 14.8 246 11.6
2003-04-08 08:35:08 51°11.644 2°46.14 249.3 14.9 246 11.6
2003-04-08 08:35:14 51°11.635 2°46.104 248.9 14.9 246 11.6
2003-04-08 08:35:19 51°11.626 2°46.073 248.9 14.9 245 11.6
2003-04-08 08:35:24 51°11.618 2°46.042 249.6 14.9 247 11.6
2003-04-08 08:35:28 51°11.612 2°46.017 250.2 15 246 11.5
2003-04-08 08:35:34 51°11.602 2°45.981 250.5 14.9 247 11.4
2003-04-08 08:35:39 51°11.595 2°45.951 250.4 14.9 247 11.4
2003-04-08 08:35:44 51°11.586 2°45.92 250.4 14.9 247 11.5
2003-04-08 08:35:48 51°11.58 2°45.897 249.6 14.9 247 11.5
2003-04-08 08:35:54 51°11.57 2°45.86 249.8 14.9 247 11.4
2003-04-08 08:35:58 51°11.564 2°45.836 250.2 14.9 247 11.5
2003-04-08 08:36:04 51°11.554 2°45.8 250 14.8 246 11.4
2003-04-08 08:36:08 51°11.548 2°45.776 250.1 14.8 247 11.5
2003-04-08 08:36:14 51°11.538 2°45.74 249.8 14.8 247 11.5
2003-04-08 08:36:18 51°11.531 2°45.717 248.5 14.7 246 11.5
2003-04-08 08:36:24 51°11.521 2°45.68 249.3 14.8 246 11.4
2003-04-08 08:36:28 51°11.515 2°45.655 250.4 15 246 11.5
2003-04-08 08:36:34 51°11.505 2°45.62 249.3 14.8 247 11.4
2003-04-08 08:36:38 51°11.498 2°45.596 248.7 14.7 246 11.4
2003-04-08 08:36:44 51°11.488 2°45.56 249.4 14.8 246 11.4
2003-04-08 08:36:48 51°11.481 2°45.536 249.5 14.9 246 11.4
2003-04-08 08:36:54 51°11.471 2°45.5 249.1 15.1 245 11.5
2003-04-08 08:36:59 51°11.463 2°45.47 248.9 15 245 11.4
2003-04-08 08:37:04 51°11.454 2°45.441 248.5 14.8 246 11.3
2003-04-08 08:37:08 51°11.448 2°45.416 249.6 14.9 246 11.3
2003-04-08 08:37:14 51°11.438 2°45.38 249.2 15 247 11.3
2003-04-08 08:37:18 51°11.43 2°45.357 249.2 15 245 11.3
2003-04-08 08:37:24 51°11.421 2°45.32 249 14.8 247 11.3
2003-04-08 08:37:28 51°11.414 2°45.297 249.4 14.8 245 11.2
2003-04-08 08:37:34 51°11.404 2°45.26 250 15 247 11.3
2003-04-08 08:37:38 51°11.398 2°45.235 250 15 247 11.3
2003-04-08 08:37:44 51°11.388 2°45.2 249 14.9 246 11.3
2003-04-08 08:37:48 51°11.381 2°45.176 249.9 14.9 246 11.2
2003-04-08 08:37:54 51°11.371 2°45.139 249.6 14.9 247 11.2
2003-04-08 08:37:58 51°11.364 2°45.115 249.6 14.9 246 11.2
2003-04-08 08:38:04 51°11.355 2°45.079 249.7 14.9 247 11.2
2003-04-08 08:38:08 51°11.348 2°45.055 249.1 14.9 246 11.2
2003-04-08 08:38:14 51°11.339 2°45.019 249.9 14.9 247 11.3
2003-04-08 08:38:18 51°11.331 2°44.995 249.4 14.9 246 11.2
2003-04-08 08:38:24 51°11.321 2°44.959 248.9 14.9 246 11.2
2003-04-08 08:38:28 51°11.315 2°44.934 249.6 15 246 11.1
2003-04-08 08:38:34 51°11.305 2°44.898 249.4 15 246 11.2
2003-04-08 08:38:39 51°11.297 2°44.868 249.4 15 247 11.2
2003-04-08 08:38:44 51°11.288 2°44.838 248.9 15 246 11.2
2003-04-08 08:38:48 51°11.282 2°44.813 249.6 15 246 11.1
2003-04-08 08:38:52 51°11.275 2°44.788 250.4 15 247 11.2
2003-04-08 08:38:58 51°11.266 2°44.751 251.1 15 248 11.2
2003-04-08 08:39:04 51°11.257 2°44.714 251.8 15 248 11.1
2003-04-08 08:39:08 51°11.251 2°44.689 251.8 15 249 11.1
2003-04-08 08:39:14 51°11.243 2°44.652 252.6 15 249 11.1
2003-04-08 08:39:19 51°11.235 2°44.621 252.4 15.1 250 11.1
2003-04-08 08:39:24 51°11.228 2°44.591 252.5 15 249 11.1
2003-04-08 08:39:28 51°11.222 2°44.566 253.1 15 250 11.1
2003-04-08 08:39:34 51°11.214 2°44.528 253.3 15 250 11.1
2003-04-08 08:39:38 51°11.207 2°44.504 252.6 15 250 11.1
2003-04-08 08:39:44 51°11.199 2°44.466 253 15 250 11.1
2003-04-08 08:39:48 51°11.193 2°44.442 252.5 15 250 11
2003-04-08 08:39:54 51°11.184 2°44.405 252.4 15 250 11
2003-04-08 08:39:58 51°11.179 2°44.38 253.8 15.1 250 11
2003-04-08 08:40:04 51°11.169 2°44.343 252.1 15 250 11
2003-04-08 08:40:08 51°11.164 2°44.319 252.8 15 249 11
2003-04-08 08:40:12 51°11.158 2°44.294 252.5 15 249 11
2003-04-08 08:40:19 51°11.148 2°44.25 253.3 15 250 11.1
2003-04-08 08:40:24 51°11.14 2°44.22 252.5 15 250 11.1
2003-04-08 08:40:28 51°11.135 2°44.195 252.8 15 250 11
2003-04-08 08:40:34 51°11.126 2°44.158 252.5 15 250 11.1
2003-04-08 08:40:39 51°11.119 2°44.127 252.3 15 249 11.1
2003-04-08 08:40:44 51°11.111 2°44.097 252.1 14.9 249 11.1
2003-04-08 08:40:48 51°11.105 2°44.072 252.5 14.9 249 11.1
2003-04-08 08:40:54 51°11.097 2°44.035 252.5 14.9 249 11.1
2003-04-08 08:40:59 51°11.089 2°44.004 251.9 14.9 249 11
2003-04-08 08:41:04 51°11.082 2°43.973 253 15 249 11
2003-04-08 08:41:08 51°11.076 2°43.948 252.6 15 250 11
2003-04-08 08:41:14 51°11.067 2°43.911 252.5 15 249 11
2003-04-08 08:41:18 51°11.062 2°43.886 252.4 15 249 11
2003-04-08 08:41:24 51°11.052 2°43.849 251.3 15 248 11.1
2003-04-08 08:41:28 51°11.047 2°43.824 253 15 249 11
2003-04-08 08:41:34 51°11.037 2°43.788 251.3 14.9 249 11.1
2003-04-08 08:41:39 51°11.031 2°43.756 253.1 14.9 249 11
2003-04-08 08:41:44 51°11.023 2°43.727 251.8 15 249 11
2003-04-08 08:41:48 51°11.018 2°43.702 252.4 15 249 11
2003-04-08 08:41:54 51°11.009 2°43.665 252.7 15 249 11.1
2003-04-08 08:41:58 51°11.004 2°43.64 252.5 15 250 11
2003-04-08 08:42:04 51°10.994 2°43.603 252.3 15 249 11.1
2003-04-08 08:42:08 51°10.989 2°43.579 252.2 14.9 249 11
2003-04-08 08:42:14 51°10.98 2°43.542 251.6 14.9 248 11
2003-04-08 08:42:18 51°10.974 2°43.517 252.8 15 249 11
2003-04-08 08:42:24 51°10.965 2°43.48 252 15 249 11
2003-04-08 08:42:28 51°10.959 2°43.455 251.8 15 249 11
2003-04-08 08:42:34 51°10.95 2°43.418 252.3 15 250 11
2003-04-08 08:42:38 51°10.944 2°43.393 252.8 15.1 249 11
2003-04-08 08:42:44 51°10.935 2°43.356 252.4 15 249 11
2003-04-08 08:42:48 51°10.93 2°43.331 252 15 249 11
2003-04-08 08:42:54 51°10.921 2°43.294 253.1 15 250 11
2003-04-08 08:42:59 51°10.914 2°43.263 252.4 15 250 10.9
2003-04-08 08:43:04 51°10.906 2°43.232 251.8 15 249 11
2003-04-08 08:43:08 51°10.9 2°43.207 252.7 15.1 249 10.9
2003-04-08 08:43:14 51°10.891 2°43.17 251.7 15.1 249 11
2003-04-08 08:43:19 51°10.885 2°43.139 252.9 15 250 11
2003-04-08 08:43:24 51°10.877 2°43.109 252.3 15 250 10.9
2003-04-08 08:43:28 51°10.872 2°43.083 252.5 15 250 10.9
2003-04-08 08:43:34 51°10.863 2°43.046 253.3 15.1 250 10.9
2003-04-08 08:43:38 51°10.857 2°43.021 252.5 15.1 250 10.9
2003-04-08 08:43:44 51°10.848 2°42.984 252.5 15.1 251 10.9
2003-04-08 08:43:48 51°10.842 2°42.959 253 15 249 10.9
2003-04-08 08:43:54 51°10.833 2°42.923 251.1 14.9 249 10.9
2003-04-08 08:43:59 51°10.827 2°42.891 252.7 15 248 10.9
2003-04-08 08:44:04 51°10.819 2°42.86 252.3 15.1 250 10.9
2003-04-08 08:44:08 51°10.813 2°42.836 252 15.1 249 10.9
2003-04-08 08:44:14 51°10.805 2°42.799 253.3 15 250 10.9
2003-04-08 08:44:18 51°10.798 2°42.775 250.7 14.9 249 10.9
2003-04-08 08:44:24 51°10.79 2°42.737 252 14.9 249 10.8
2003-04-08 08:44:28 51°10.784 2°42.713 251.4 15 249 10.8
2003-04-08 08:44:34 51°10.776 2°42.674 254 15.2 250 10.8
2003-04-08 08:44:39 51°10.77 2°42.643 255.4 15.2 251 10.8
2003-04-08 08:44:44 51°10.764 2°42.611 256.9 15.1 253 10.9
2003-04-08 08:44:48 51°10.76 2°42.586 258 15 254 10.9
2003-04-08 08:44:54 51°10.754 2°42.548 259.1 14.9 255 10.9
2003-04-08 08:44:59 51°10.749 2°42.515 260.1 15 256 10.9
2003-04-08 08:45:04 51°10.745 2°42.482 261.3 15.1 257 10.9
2003-04-08 08:45:08 51°10.741 2°42.456 262.7 15.1 258 11
2003-04-08 08:45:14 51°10.737 2°42.417 263.9 15.1 260 11
2003-04-08 08:45:19 51°10.733 2°42.384 264.1 15 260 11
2003-04-08 08:45:24 51°10.73 2°42.351 264.3 15 260 11
2003-04-08 08:45:28 51°10.728 2°42.324 264.9 15.1 261 11
2003-04-08 08:45:34 51°10.725 2°42.284 265.7 15.2 261 11.1
2003-04-08 08:45:39 51°10.722 2°42.252 265.5 15.2 262 11.1
2003-04-08 08:45:44 51°10.719 2°42.22 265.7 15.1 261 11.1
2003-04-08 08:45:48 51°10.717 2°42.193 265.3 15.1 262 11.1
2003-04-08 08:45:54 51°10.713 2°42.152 266 15.2 261 11.2
2003-04-08 08:45:59 51°10.711 2°42.12 266.6 15.3 263 11.2
2003-04-08 08:46:04 51°10.707 2°42.087 264.9 15.2 261 11.2
2003-04-08 08:46:08 51°10.705 2°42.061 265.6 15.1 262 11.2
2003-04-08 08:46:14 51°10.701 2°42.021 264.6 15.2 261 11.2
2003-04-08 08:46:19 51°10.698 2°41.988 266.3 15.3 262 11.2
2003-04-08 08:46:24 51°10.694 2°41.955 264.9 15.2 262 11.3
2003-04-08 08:46:28 51°10.692 2°41.929 264.8 15.1 261 11.3
2003-04-08 08:46:34 51°10.687 2°41.89 263.9 15 260 11.3
2003-04-08 08:46:39 51°10.683 2°41.858 262.7 15.1 260 11.3
2003-04-08 08:46:44 51°10.679 2°41.825 262.8 15.2 259 11.3
2003-04-08 08:46:48 51°10.676 2°41.799 262.5 15.2 259 11.3
2003-04-08 08:46:54 51°10.671 2°41.76 261.5 15.1 258 11.4
2003-04-08 08:46:58 51°10.667 2°41.734 261.2 15.1 258 11.4
2003-04-08 08:47:04 51°10.663 2°41.695 262.8 15.1 258 11.3
2003-04-08 08:47:08 51°10.659 2°41.669 262 15.1 259 11.4
2003-04-08 08:47:14 51°10.654 2°41.63 261.7 15.1 258 11.4
2003-04-08 08:47:19 51°10.65 2°41.598 261.7 15.1 258 11.4
2003-04-08 08:47:24 51°10.644 2°41.566 259 15.1 257 11.4
2003-04-08 08:47:28 51°10.64 2°41.54 258.3 15.1 256 11.4
2003-04-08 08:47:34 51°10.633 2°41.502 257.5 15.2 255 11.5
2003-04-08 08:47:38 51°10.629 2°41.476 257 15.1 254 11.4
2003-04-08 08:47:44 51°10.621 2°41.439 255.5 15.1 253 11.4
2003-04-08 08:47:48 51°10.616 2°41.413 255.8 15.1 253 11.5
2003-04-08 08:47:54 51°10.608 2°41.376 255 15 253 11.5
2003-04-08 08:47:58 51°10.603 2°41.35 254.6 15 252 11.5
2003-04-08 08:48:04 51°10.596 2°41.312 254.9 15.1 252 11.5
2003-04-08 08:48:08 51°10.59 2°41.287 254.6 15.1 252 11.6
2003-04-08 08:48:14 51°10.583 2°41.249 255.1 15.2 252 11.5
2003-04-08 08:48:18 51°10.578 2°41.223 255.3 15.1 252 11.5
2003-04-08 08:48:24 51°10.57 2°41.185 255.2 15.1 252 11.5
2003-04-08 08:48:28 51°10.565 2°41.16 255 15.2 252 11.5
2003-04-08 08:48:34 51°10.557 2°41.122 255 15.1 252 11.6
2003-04-08 08:48:38 51°10.552 2°41.097 255.1 15.1 252 11.5
2003-04-08 08:48:44 51°10.545 2°41.059 254.5 15 252 11.6
2003-04-08 08:48:48 51°10.54 2°41.034 254.7 15.1 252 11.6
2003-04-08 08:48:54 51°10.532 2°40.996 254.8 15.1 252 11.5
2003-04-08 08:48:59 51°10.526 2°40.964 255.4 15.1 252 11.6
2003-04-08 08:49:04 51°10.52 2°40.932 254.9 15.1 252 11.6
2003-04-08 08:49:08 51°10.515 2°40.907 255.3 15.1 253 11.5
2003-04-08 08:49:14 51°10.508 2°40.868 255.6 15.2 253 11.5
2003-04-08 08:49:18 51°10.502 2°40.843 255 15.2 252 11.6
2003-04-08 08:49:24 51°10.495 2°40.805 255.1 15.2 253 11.7
2003-04-08 08:49:28 51°10.489 2°40.78 254.2 15.2 252 11.6
2003-04-08 08:49:34 51°10.48 2°40.743 252.7 15.2 251 11.7
2003-04-08 08:49:39 51°10.474 2°40.711 253.5 15.1 250 11.4
2003-04-08 08:49:44 51°10.466 2°40.68 252 15.2 250 11.7
2003-04-08 08:49:48 51°10.461 2°40.655 252.2 15.2 250 11.7
2003-04-08 08:49:54 51°10.451 2°40.618 251 15.2 249 11.7
2003-04-08 08:49:58 51°10.446 2°40.592 251.6 15.1 249 11.7
2003-04-08 08:50:04 51°10.437 2°40.555 251.1 15.2 249 11.7
2003-04-08 08:50:08 51°10.431 2°40.53 251.1 15.2 249 11.7
2003-04-08 08:50:14 51°10.422 2°40.493 250.7 15.3 250 11.7
2003-04-08 08:50:18 51°10.416 2°40.468 251.2 15.3 249 11.7
2003-04-08 08:50:24 51°10.406 2°40.431 251.1 15.3 250 11.8
2003-04-08 08:50:28 51°10.401 2°40.406 251.2 15.3 249 11.7
2003-04-08 08:50:34 51°10.391 2°40.369 250.2 15.2 248 11.9
2003-04-08 08:50:39 51°10.384 2°40.337 250.9 15.1 249 11.8
2003-04-08 08:50:44 51°10.376 2°40.307 250.6 15.1 248 11.8
2003-04-08 08:50:48 51°10.37 2°40.282 250.3 15.1 249 11.9
2003-04-08 08:50:54 51°10.36 2°40.246 249.9 15.1 247 11.9
2003-04-08 08:50:59 51°10.353 2°40.214 250.9 15 249 12
2003-04-08 08:51:04 51°10.346 2°40.183 250.9 15.1 249 12
2003-04-08 08:51:08 51°10.34 2°40.158 251.1 15.2 249 12
2003-04-08 08:51:14 51°10.331 2°40.121 251.4 15.2 249 12
2003-04-08 08:51:18 51°10.325 2°40.097 251.7 15.1 249 12.1
2003-04-08 08:51:24 51°10.315 2°40.06 250.7 15.1 249 12.1
2003-04-08 08:51:29 51°10.308 2°40.029 251.1 15.1 249 12.1
2003-04-08 08:51:34 51°10.301 2°39.998 250.9 15.1 249 12.1
2003-04-08 08:51:38 51°10.294 2°39.974 250.6 15 249 12.1
2003-04-08 08:51:44 51°10.286 2°39.936 251.1 15 249 12.2
2003-04-08 08:51:48 51°10.279 2°39.912 250.7 15 248 12.3
2003-04-08 08:51:54 51°10.27 2°39.875 249.7 15 248 12.2
2003-04-08 08:51:59 51°10.263 2°39.844 251.5 15 248 12.3
2003-04-08 08:52:04 51°10.254 2°39.814 250.3 15 248 12.4
2003-04-08 08:52:08 51°10.249 2°39.789 251.3 15 249 12.3
2003-04-08 08:52:14 51°10.239 2°39.752 251.1 15 248 12.4
2003-04-08 08:52:18 51°10.235 2°39.727 251.4 15 249 12.4
2003-04-08 08:52:24 51°10.225 2°39.69 251.1 15 248 12.5
2003-04-08 08:52:28 51°10.219 2°39.666 251.1 15 249 12.5
2003-04-08 08:52:34 51°10.21 2°39.629 250.5 14.9 249 12.6
2003-04-08 08:52:39 51°10.202 2°39.599 250.5 15 249 12.6
2003-04-08 08:52:44 51°10.195 2°39.567 251 15.2 247 12.6
2003-04-08 08:52:48 51°10.188 2°39.543 251 15.2 247 12.8
2003-04-08 08:52:54 51°10.18 2°39.506 250.8 15.2 249 12.7
2003-04-08 08:52:58 51°10.173 2°39.481 250.6 15.1 248 12.8
2003-04-08 08:53:04 51°10.164 2°39.444 251.4 15.1 249 12.8
2003-04-08 08:53:08 51°10.158 2°39.419 251.1 15.1 248 12.9
2003-04-08 08:53:14 51°10.149 2°39.381 251.2 15.2 249 12.9
2003-04-08 08:53:19 51°10.142 2°39.35 251.3 15.2 249 13
2003-04-08 08:53:24 51°10.134 2°39.319 251.1 15.1 249 13
2003-04-08 08:53:28 51°10.128 2°39.294 250.8 15.1 248 13
2003-04-08 08:53:34 51°10.119 2°39.257 251.2 15 248 13.1
2003-04-08 08:53:38 51°10.113 2°39.232 251.2 15.1 249 13.1
2003-04-08 08:53:44 51°10.104 2°39.195 250.9 15.2 248 13.1
2003-04-08 08:53:48 51°10.098 2°39.17 251.3 15.2 247 13.2
2003-04-08 08:53:54 51°10.089 2°39.134 250.4 15 249 13.2
2003-04-08 08:53:58 51°10.083 2°39.109 251.4 15 248 13.2
2003-04-08 08:54:04 51°10.074 2°39.071 251.8 15.1 250 13.2
2003-04-08 08:54:08 51°10.068 2°39.047 250.5 15.1 249 13.2
2003-04-08 08:54:14 51°10.059 2°39.009 251.8 15.1 249 13.3
2003-04-08 08:54:19 51°10.051 2°38.978 250.5 15.2 249 13.3
2003-04-08 08:54:24 51°10.044 2°38.946 251.8 15.4 250 13.3
2003-04-08 08:54:29 51°10.036 2°38.916 251.1 15.7 252 13.4
2003-04-08 08:54:34 51°10.029 2°38.884 251.7 15.4 250 13.4
2003-04-08 08:54:38 51°10.022 2°38.859 250.7 15.2 249 13.5
2003-04-08 08:54:44 51°10.013 2°38.82 251.8 15.1 249 13.5
2003-04-08 08:54:48 51°10.007 2°38.795 251.3 15.1 250 13.6
2003-04-08 08:54:54 51°9.998 2°38.759 251.1 15 249 13.5
2003-04-08 08:54:59 51°9.99 2°38.728 250.8 15 248 13.6
2003-04-08 08:55:04 51°9.983 2°38.696 251.7 15.1 249 13.7
2003-04-08 08:55:08 51°9.976 2°38.672 250.6 15.1 249 13.7
2003-04-08 08:55:14 51°9.967 2°38.635 251.5 15.1 248 13.7
2003-04-08 08:55:18 51°9.961 2°38.609 250.7 15.1 249 13.7
2003-04-08 08:55:24 51°9.952 2°38.573 250.6 15.1 248 13.8
2003-04-08 08:55:28 51°9.946 2°38.549 251.9 15.1 249 13.7
2003-04-08 08:55:34 51°9.937 2°38.512 250.6 15 249 13.8
2003-04-08 08:55:39 51°9.93 2°38.48 251.8 15 249 13.8
2003-04-08 08:55:44 51°9.921 2°38.45 250.7 15 249 13.9
2003-04-08 08:55:48 51°9.916 2°38.425 251.6 15 248 13.9
2003-04-08 08:55:54 51°9.906 2°38.39 249.4 15 248 14
2003-04-08 08:55:59 51°9.899 2°38.36 249.4 15 246 14
2003-04-08 08:56:04 51°9.891 2°38.33 249.2 15 247 14
2003-04-08 08:56:08 51°9.885 2°38.306 249.5 15.1 246 14.1
2003-04-08 08:56:14 51°9.875 2°38.27 248.6 15 248 14.1
2003-04-08 08:56:18 51°9.869 2°38.246 248.2 15 246 14
2003-04-08 08:56:24 51°9.859 2°38.21 248.6 15.1 246 14.2
2003-04-08 08:56:28 51°9.852 2°38.187 247.3 15 246 14.1
2003-04-08 08:56:34 51°9.842 2°38.151 248.7 15 245 14.1
2003-04-08 08:56:39 51°9.834 2°38.121 248.2 15 247 14.1
2003-04-08 08:56:44 51°9.826 2°38.09 248.8 15 246 14.2
2003-04-08 08:56:49 51°9.817 2°38.061 248.2 15 247 14.3
2003-04-08 08:56:54 51°9.809 2°38.03 248.3 15 247 14.2
2003-04-08 08:56:59 51°9.8 2°38 248.3 15.1 246 14.3
2003-04-08 08:57:04 51°9.792 2°37.969 248.2 15.2 247 14.3
2003-04-08 08:57:08 51°9.785 2°37.945 247.8 15.2 246 14.4
2003-04-08 08:57:14 51°9.776 2°37.908 248.2 15.1 247 14.4
2003-04-08 08:57:19 51°9.767 2°37.878 247.8 15 246 14.4
2003-04-08 08:57:24 51°9.759 2°37.847 248.9 15.1 248 14.4
2003-04-08 08:57:28 51°9.752 2°37.824 248 15.1 246 14.5
2003-04-08 08:57:34 51°9.742 2°37.787 248.3 15 247 14.5
2003-04-08 08:57:39 51°9.734 2°37.757 247.9 14.9 246 14.5
2003-04-08 08:57:44 51°9.726 2°37.726 248.9 15 247 14.5
2003-04-08 08:57:48 51°9.719 2°37.702 248 15 246 14.6
2003-04-08 08:57:54 51°9.709 2°37.665 248.5 15 247 14.7
2003-04-08 08:57:58 51°9.703 2°37.641 248.2 15.1 247 14.7
2003-04-08 08:58:04 51°9.693 2°37.604 248.3 15.1 246 14.7
2003-04-08 08:58:08 51°9.686 2°37.58 247.6 15.1 247 14.7
2003-04-08 08:58:14 51°9.675 2°37.544 247.9 15 245 14.7
2003-04-08 08:58:18 51°9.67 2°37.519 249.4 15 248 14.7
2003-04-08 08:58:24 51°9.657 2°37.483 246.8 15 245 14.8
2003-04-08 08:58:28 51°9.652 2°37.457 248.3 15 246 14.9
2003-04-08 08:58:34 51°9.641 2°37.421 247.9 14.9 246 14.9
2003-04-08 08:58:38 51°9.635 2°37.396 248.3 14.9 246 14.9
2003-04-08 08:58:44 51°9.624 2°37.36 248.1 14.9 246 14.7
2003-04-08 08:58:48 51°9.618 2°37.336 246.8 14.8 246 14.7
2003-04-08 08:58:54 51°9.607 2°37.3 247.2 14.9 245 14.8
2003-04-08 08:58:59 51°9.599 2°37.269 247.9 15.1 246 14.8
2003-04-08 08:59:04 51°9.59 2°37.24 248 15.1 246 15.1
2003-04-08 08:59:08 51°9.583 2°37.216 247.6 15 246 15.1
2003-04-08 08:59:14 51°9.574 2°37.18 248 15 247 15.1
2003-04-08 08:59:19 51°9.565 2°37.149 247.9 15 246 15.1
2003-04-08 08:59:24 51°9.557 2°37.118 248.3 15.1 247 15.2
2003-04-08 08:59:28 51°9.55 2°37.094 248.2 15.1 247 15.2
2003-04-08 08:59:34 51°9.541 2°37.057 248.6 15.1 247 15
2003-04-08 08:59:39 51°9.532 2°37.027 248.1 15.1 247 15.1
2003-04-08 08:59:44 51°9.524 2°36.996 248.3 15.1 247 15.1
2003-04-08 08:59:48 51°9.517 2°36.972 247.9 15.1 246 15
2003-04-08 08:59:54 51°9.508 2°36.934 249.5 15.2 247 15
2003-04-08 08:59:58 51°9.501 2°36.91 248.2 15.2 247 15.2
2003-04-08 09:00:04 51°9.491 2°36.874 247.5 15 246 15.2
2003-04-08 09:00:08 51°9.484 2°36.849 247.7 15 246 15.2
2003-04-08 09:00:14 51°9.474 2°36.812 248.6 15.2 247 15.2
2003-04-08 09:00:18 51°9.467 2°36.788 248 15.2 247 15.1
2003-04-08 09:00:24 51°9.457 2°36.751 247.9 15.2 247 15
2003-04-08 09:00:28 51°9.45 2°36.727 247.5 15.1 246 15
2003-04-08 09:00:34 51°9.441 2°36.69 248.3 15.2 247 15.1
2003-04-08 09:00:39 51°9.432 2°36.659 248.7 15.1 247 15
2003-04-08 09:00:44 51°9.423 2°36.629 247.8 15 246 15
2003-04-08 09:00:48 51°9.418 2°36.604 249.1 15.1 247 15
2003-04-08 09:00:52 51°9.411 2°36.579 248.3 15.1 247 15
2003-04-08 09:00:58 51°9.401 2°36.543 247.4 15.1 246 15
2003-04-08 09:01:04 51°9.391 2°36.506 248.3 15.1 246 15
2003-04-08 09:01:08 51°9.384 2°36.481 248.2 15.2 247 15
2003-04-08 09:01:14 51°9.374 2°36.444 248.3 15.1 246 15
2003-04-08 09:01:19 51°9.366 2°36.414 248.3 15.1 247 14.9
2003-04-08 09:01:24 51°9.357 2°36.383 247.9 15.2 246 14.9
2003-04-08 09:01:28 51°9.351 2°36.358 248.4 15.2 247 15
2003-04-08 09:01:34 51°9.341 2°36.321 249.1 15.2 247 15
2003-04-08 09:01:38 51°9.335 2°36.296 248.8 15.1 248 14.9
2003-04-08 09:01:44 51°9.325 2°36.259 248.4 15.2 247 14.8
2003-04-08 09:01:48 51°9.318 2°36.234 248.9 15.2 247 14.9
2003-04-08 09:01:54 51°9.308 2°36.197 248.2 15.2 247 14.8
2003-04-08 09:01:58 51°9.302 2°36.173 248.6 15.1 247 14.9
2003-04-08 09:02:04 51°9.291 2°36.137 247.5 15.1 247 14.9
2003-04-08 09:02:08 51°9.285 2°36.112 248.8 15.2 246 14.9
2003-04-08 09:02:14 51°9.274 2°36.075 247.8 15.2 246 15.1
2003-04-08 09:02:18 51°9.268 2°36.051 247.7 15.1 246 15.1
2003-04-08 09:02:24 51°9.258 2°36.014 248.5 15.1 247 15.1
2003-04-08 09:02:28 51°9.252 2°35.988 248.2 15.2 247 15.1
2003-04-08 09:02:34 51°9.242 2°35.951 248.9 15.3 247 14.9
2003-04-08 09:02:38 51°9.235 2°35.926 248.4 15.3 247 15.4
2003-04-08 09:02:44 51°9.225 2°35.89 248.4 15.2 247 15.3
2003-04-08 09:02:48 51°9.218 2°35.865 247.8 15.2 247 15.2
2003-04-08 09:02:54 51°9.208 2°35.828 248.1 15.3 247 15.6
2003-04-08 09:02:59 51°9.2 2°35.796 248.9 15.3 247 15.1
2003-04-08 09:03:04 51°9.192 2°35.766 248 15.3 247 15.1
2003-04-08 09:03:08 51°9.185 2°35.741 248.5 15.3 247 15.4
2003-04-08 09:03:14 51°9.175 2°35.704 248 15.3 247 15.6
2003-04-08 09:03:19 51°9.166 2°35.673 247.9 15.3 246 15.3
2003-04-08 09:03:24 51°9.158 2°35.642 248.9 15.4 247 15.4
2003-04-08 09:03:28 51°9.151 2°35.617 247.5 15.3 247 15.6
2003-04-08 09:03:34 51°9.141 2°35.58 248.4 15.3 246 15.8
2003-04-08 09:03:39 51°9.132 2°35.549 247.8 15.3 247 15.6
2003-04-08 09:03:44 51°9.124 2°35.518 247.5 15.4 246 15.7
2003-04-08 09:03:48 51°9.117 2°35.493 247.9 15.3 246 15.3
2003-04-08 09:03:54 51°9.107 2°35.456 247.6 15.2 246 15.7
2003-04-08 09:03:58 51°9.1 2°35.432 247.7 15.2 247 15.8
2003-04-08 09:04:04 51°9.09 2°35.394 249 15.3 247 15.2
2003-04-08 09:04:08 51°9.084 2°35.369 248.6 15.3 247 15.3
2003-04-08 09:04:14 51°9.073 2°35.332 247.4 15.3 246 15.4
2003-04-08 09:04:19 51°9.065 2°35.301 247.9 15.3 247 15.3
2003-04-08 09:04:24 51°9.057 2°35.27 248.2 15.4 247 15.4
2003-04-08 09:04:28 51°9.05 2°35.245 248.8 15.4 247 15.4
2003-04-08 09:04:34 51°9.04 2°35.208 248.3 15.3 247 15.4
2003-04-08 09:04:38 51°9.034 2°35.182 249 15.3 247 15.7
2003-04-08 09:04:44 51°9.023 2°35.145 248.4 15.4 247 15.2
2003-04-08 09:04:48 51°9.017 2°35.12 247.9 15.3 247 15.7
2003-04-08 09:04:54 51°9.006 2°35.083 248.5 15.4 246 15.4
2003-04-08 09:04:58 51°9 2°35.058 247.9 15.3 247 15.3
2003-04-08 09:05:04 51°8.99 2°35.02 248.1 15.4 247 15.8
2003-04-08 09:05:08 51°8.983 2°34.996 248.4 15.4 247 15.5
2003-04-08 09:05:14 51°8.973 2°34.958 248.4 15.4 247 15.9
2003-04-08 09:05:18 51°8.966 2°34.934 248.5 15.3 247 15.3
2003-04-08 09:05:24 51°8.956 2°34.896 248 15.3 247 15.5
2003-04-08 09:05:29 51°8.948 2°34.866 248.7 15.3 247 15.6
2003-04-08 09:05:34 51°8.939 2°34.835 248.7 15.3 247 15.4
2003-04-08 09:05:39 51°8.93 2°34.804 247.5 15.3 246 16
2003-04-08 09:05:44 51°8.922 2°34.772 248.6 15.3 247 15.9
2003-04-08 09:05:48 51°8.915 2°34.747 248.1 15.3 247 15.9
2003-04-08 09:05:54 51°8.905 2°34.71 247.7 15.3 246 15.5
2003-04-08 09:05:59 51°8.896 2°34.68 247.5 15.4 246 15.6
2003-04-08 09:06:04 51°8.888 2°34.648 249.1 15.5 247 15.9
2003-04-08 09:06:08 51°8.881 2°34.623 248.2 15.4 248 16.1
2003-04-08 09:06:14 51°8.871 2°34.586 248.3 15.4 247 15.6
2003-04-08 09:06:18 51°8.864 2°34.561 248.3 15.4 247 16.1
2003-04-08 09:06:24 51°8.853 2°34.523 247.7 15.4 246 15.7
2003-04-08 09:06:28 51°8.846 2°34.499 248 15.4 246 15.5
2003-04-08 09:06:34 51°8.836 2°34.461 248 15.3 246 15.5
2003-04-08 09:06:38 51°8.829 2°34.436 248.1 15.4 246 15.8
2003-04-08 09:06:44 51°8.819 2°34.399 248.4 15.4 247 16.2
2003-04-08 09:06:48 51°8.812 2°34.374 247.3 15.4 246 15.6
2003-04-08 09:06:54 51°8.802 2°34.336 247.7 15.4 246 15.5
2003-04-08 09:06:59 51°8.793 2°34.305 248.9 15.5 246 15.7
2003-04-08 09:07:04 51°8.784 2°34.274 248.2 15.5 247 15.9
2003-04-08 09:07:08 51°8.778 2°34.249 248.5 15.5 246 16
2003-04-08 09:07:14 51°8.768 2°34.212 248.7 15.5 247 15.7
2003-04-08 09:07:18 51°8.76 2°34.187 247.5 15.5 246 15.6
2003-04-08 09:07:24 51°8.75 2°34.15 247.6 15.4 246 15.7
2003-04-08 09:07:28 51°8.743 2°34.125 247.6 15.4 246 15.4
2003-04-08 09:07:34 51°8.733 2°34.088 248.3 15.5 246 15.6
2003-04-08 09:07:39 51°8.723 2°34.057 247.7 15.5 246 15.2
2003-04-08 09:07:44 51°8.716 2°34.025 248.5 15.5 246 15.8
2003-04-08 09:07:48 51°8.708 2°34.001 247.5 15.4 246 15.2
2003-04-08 09:07:54 51°8.698 2°33.964 248 15.4 246 15.4
2003-04-08 09:07:59 51°8.689 2°33.933 248.7 15.4 246 15.8
2003-04-08 09:08:04 51°8.68 2°33.903 247.1 15.4 246 15.5
2003-04-08 09:08:08 51°8.673 2°33.879 247.8 15.3 245 14.8
2003-04-08 09:08:14 51°8.663 2°33.841 248 15.4 246 14.9
2003-04-08 09:08:18 51°8.656 2°33.817 247.5 15.4 246 15.6
2003-04-08 09:08:24 51°8.646 2°33.779 248.3 15.4 246 15.1
2003-04-08 09:08:28 51°8.639 2°33.754 249.2 15.5 247 14.6
2003-04-08 09:08:34 51°8.628 2°33.717 248.1 15.4 247 15.6
2003-04-08 09:08:38 51°8.621 2°33.692 248.3 15.4 246 14.6
2003-04-08 09:08:44 51°8.611 2°33.653 248.8 15.5 247 15
2003-04-08 09:08:48 51°8.604 2°33.628 249 15.5 246 14.6
2003-04-08 09:08:54 51°8.595 2°33.59 248.4 15.5 247 15.2
2003-04-08 09:08:59 51°8.586 2°33.56 248.7 15.5 246 15
2003-04-08 09:09:04 51°8.578 2°33.53 248.9 15 247 14.7
2003-04-08 09:09:08 51°8.571 2°33.508 249.3 14.5 246 14.8
2003-04-08 09:09:14 51°8.564 2°33.476 250.4 13.5 248 14.9
2003-04-08 09:09:19 51°8.558 2°33.452 252.3 12.8 248 15
2003-04-08 09:09:24 51°8.553 2°33.428 254 11.8 250 15.1
2003-04-08 09:09:28 51°8.55 2°33.41 256.8 11.3 251 15.2
2003-04-08 09:09:34 51°8.545 2°33.384 259.3 10.5 253 15.2
2003-04-08 09:09:38 51°8.542 2°33.368 261.8 10 256 15.3
2003-04-08 09:09:44 51°8.539 2°33.344 265.7 9.5 259 15.3
2003-04-08 09:09:48 51°8.538 2°33.328 269 9.1 261 15.3
2003-04-08 09:09:54 51°8.536 2°33.306 272.1 8.6 263 15
2003-04-08 09:09:59 51°8.536 2°33.289 275 8.3 265 15.2
2003-04-08 09:10:04 51°8.536 2°33.27 277.8 7.8 267 15.3
2003-04-08 09:10:08 51°8.536 2°33.256 280.3 7.6 269 15.2
2003-04-08 09:10:14 51°8.536 2°33.238 282.6 7.2 272 15.4
2003-04-08 09:10:19 51°8.537 2°33.223 284.8 6.9 273 15.3
2003-04-08 09:10:24 51°8.538 2°33.209 287.6 6.7 275 15.3
2003-04-08 09:10:28 51°8.539 2°33.198 289.8 6.4 276 15.3
2003-04-08 09:10:32 51°8.541 2°33.188 292.2 6.2 278 15.2
2003-04-08 09:10:38 51°8.544 2°33.173 294.9 6 280 15.5
2003-04-08 09:10:44 51°8.547 2°33.158 297.5 5.8 282 15.7
2003-04-08 09:10:48 51°8.549 2°33.148 301.3 5.7 284 15.6
2003-04-08 09:10:54 51°8.553 2°33.135 306.2 5.5 288 16
2003-04-08 09:10:58 51°8.556 2°33.127 311.5 5.4 290 16.1
2003-04-08 09:11:04 51°8.559 2°33.115 316.8 5.2 295 15.9
2003-04-08 09:11:08 51°8.56 2°33.108 322.1 5 298 16.2
2003-04-08 09:11:14 51°8.564 2°33.099 327.3 4.7 302 16.2
2003-04-08 09:11:18 51°8.567 2°33.094 332.3 4.6 305 16.4
2003-04-08 09:11:24 51°8.571 2°33.086 337 4.5 309 16.5
2003-04-08 09:11:28 51°8.574 2°33.081 341.8 4.3 312 16.7
2003-04-08 09:11:34 51°8.579 2°33.073 346.6 4.1 316 16.7
2003-04-08 09:11:39 51°8.584 2°33.068 351.1 3.9 319 16.5
2003-04-08 09:11:44 51°8.589 2°33.063 355.7 3.7 323 16.7
2003-04-08 09:11:48 51°8.592 2°33.06 0.2 3.6 326 16.7
2003-04-08 09:11:54 51°8.598 2°33.056 4.6 3.4 330 17
2003-04-08 09:11:58 51°8.601 2°33.053 9.3 3.3 333 17.1
2003-04-08 09:12:04 51°8.606 2°33.05 13.8 3.1 338 17.4
2003-04-08 09:12:08 51°8.61 2°33.048 17.4 3 342 17.3
2003-04-08 09:12:14 51°8.614 2°33.047 22.4 2.9 346 17.4
2003-04-08 09:12:19 51°8.618 2°33.047 25.9 2.7 349 17.4
2003-04-08 09:12:24 51°8.621 2°33.047 31.1 2.5 354 17.6
2003-04-08 09:12:28 51°8.623 2°33.047 35.5 2.4 357 17.6
2003-04-08 09:12:34 51°8.626 2°33.047 39.5 2.3 3 17.6
2003-04-08 09:12:39 51°8.629 2°33.048 43 2.2 6 17.8
2003-04-08 09:12:44 51°8.631 2°33.049 48.4 2 12 17.8
2003-04-08 09:12:48 51°8.633 2°33.051 52.7 2 17 17.7
2003-04-08 09:12:54 51°8.636 2°33.053 57.2 1.8 26 17.8
2003-04-08 09:12:59 51°8.638 2°33.056 61.6 1.8 31 17.9
2003-04-08 09:13:04 51°8.638 2°33.059 66 1.6 38 17.9
2003-04-08 09:13:08 51°8.638 2°33.061 69.7 1.6 44 17.8
2003-04-08 09:13:14 51°8.639 2°33.065 73.4 1.5 54 17.6
2003-04-08 09:13:19 51°8.64 2°33.068 76.2 1.5 59 17.7
2003-04-08 09:13:24 51°8.64 2°33.07 79.4 1.3 66 17.7
2003-04-08 09:13:29 51°8.641 2°33.072 81.2 1.2 69 17.7
2003-04-08 09:13:34 51°8.642 2°33.074 83 1.1 73 17.6
2003-04-08 09:13:38 51°8.643 2°33.076 84.1 1 78 17.7
2003-04-08 09:13:44 51°8.643 2°33.077 85 0.8 82 17.7
2003-04-08 09:13:48 51°8.643 2°33.077 86 0.5 89 17.7
2003-04-08 09:13:54 51°8.642 2°33.077 88.5 0.2 118 17.6